Time;durP1;ratioP1;P1;durP2;ratioP2;P2;SDS_P1;SDS_P2;PMS_P1;PMS_P2;Temp;Humidity;BMP_temperature;BMP_pressure;BME280_temperature;BME280_humidity;BME280_pressure;Samples;Min_cycle;Max_cycle;Signal;HPM_P1;HPM_P2
2021/05/30 00:00:15;;;;;;;12.43;11.13;;;12.90;99.90;;;;;;10417134;28;20389;-60
2021/05/30 00:05:18;;;;;;;14.32;11.43;;;12.80;99.90;;;;;;10417406;28;20045;-60
2021/05/30 00:10:20;;;;;;;13.65;11.02;;;12.90;99.90;;;;;;10416543;28;20477;-60
2021/05/30 00:15:22;;;;;;;14.13;11.90;;;12.80;99.90;;;;;;10416190;28;20045;-60
2021/05/30 00:20:24;;;;;;;14.75;12.45;;;12.70;99.90;;;;;;10416451;28;20042;-60
2021/05/30 00:25:26;;;;;;;13.45;11.65;;;12.50;99.90;;;;;;10416022;28;20045;-60
2021/05/30 00:30:28;;;;;;;16.17;13.52;;;12.50;99.90;;;;;;10416002;28;20466;-61
2021/05/30 00:35:30;;;;;;;14.32;12.55;;;12.30;99.90;;;;;;10415503;28;20041;-60
2021/05/30 00:40:32;;;;;;;15.77;13.25;;;12.40;99.90;;;;;;10415705;28;20051;-60
2021/05/30 00:45:34;;;;;;;15.75;11.57;;;12.40;99.90;;;;;;10415585;28;20053;-61
2021/05/30 00:50:36;;;;;;;22.80;15.15;;;12.40;99.90;;;;;;10415536;28;20053;-60
2021/05/30 00:55:40;;;;;;;15.80;13.68;;;12.30;99.90;;;;;;10415994;28;20057;-61
2021/05/30 01:00:42;;;;;;;17.73;13.50;;;12.30;99.90;;;;;;10414368;28;20074;-60
2021/05/30 01:05:47;;;;;;;16.05;12.88;;;12.10;99.90;;;;;;10422410;28;20037;-61
2021/05/30 01:10:50;;;;;;;20.83;14.52;;;12.00;99.90;;;;;;10423901;28;20046;-60
2021/05/30 01:15:53;;;;;;;19.23;15.52;;;12.00;99.90;;;;;;10422189;28;20048;-60
2021/05/30 01:20:56;;;;;;;23.42;17.20;;;11.90;99.90;;;;;;10423641;28;20048;-60
2021/05/30 01:25:58;;;;;;;19.70;15.82;;;11.90;99.90;;;;;;10422841;28;20045;-60
2021/05/30 01:31:00;;;;;;;20.80;16.23;;;11.80;99.90;;;;;;10422613;28;20499;-60
2021/05/30 01:36:03;;;;;;;18.38;15.13;;;11.70;99.90;;;;;;10422650;28;20114;-61
2021/05/30 01:41:06;;;;;;;18.80;16.05;;;11.70;99.90;;;;;;10422316;28;20367;-60
2021/05/30 01:46:08;;;;;;;21.60;17.52;;;11.60;99.90;;;;;;10422710;28;20045;-61
2021/05/30 01:51:10;;;;;;;23.80;17.45;;;11.50;99.90;;;;;;10420876;28;20421;-60
2021/05/30 02:01:15;;;;;;;25.38;19.65;;;11.40;99.90;;;;;;10421759;28;20050;-59
2021/05/30 02:06:18;;;;;;;24.55;18.00;;;11.40;99.90;;;;;;10421343;28;20132;-60
2021/05/30 02:11:20;;;;;;;27.45;18.60;;;11.30;99.90;;;;;;10420227;28;20052;-61
2021/05/30 02:16:22;;;;;;;24.83;18.02;;;11.30;99.90;;;;;;10419718;28;20385;-60
2021/05/30 02:21:25;;;;;;;24.05;18.67;;;11.20;99.90;;;;;;10420013;28;20445;-60
2021/05/30 02:26:27;;;;;;;19.23;16.38;;;11.20;99.90;;;;;;10420597;28;20041;-60
2021/05/30 02:31:29;;;;;;;20.75;17.48;;;11.10;99.90;;;;;;10421097;28;20042;-60
2021/05/30 02:36:31;;;;;;;22.33;16.77;;;11.20;99.90;;;;;;10420070;28;20559;-61
2021/05/30 02:41:33;;;;;;;21.08;16.70;;;10.90;99.90;;;;;;10420016;28;20051;-60
2021/05/30 02:46:35;;;;;;;24.45;17.35;;;10.80;99.90;;;;;;10419624;28;20375;-60
2021/05/30 02:51:37;;;;;;;23.88;16.08;;;10.80;99.90;;;;;;10419785;28;20046;-60
2021/05/30 02:56:41;;;;;;;21.60;16.48;;;10.80;99.90;;;;;;10420165;28;20045;-59
2021/05/30 03:01:43;;;;;;;21.85;15.68;;;10.70;99.90;;;;;;10419452;28;20050;-59
2021/05/30 03:06:45;;;;;;;23.15;17.35;;;10.60;99.90;;;;;;10419032;28;20465;-59
2021/05/30 03:11:47;;;;;;;20.35;15.60;;;10.50;99.90;;;;;;10419294;28;20042;-60
2021/05/30 03:16:49;;;;;;;23.45;17.77;;;10.50;99.90;;;;;;10418603;28;20053;-60
2021/05/30 03:21:51;;;;;;;29.02;17.45;;;10.40;99.90;;;;;;10418514;28;20072;-60
2021/05/30 03:26:54;;;;;;;23.30;15.70;;;10.40;99.90;;;;;;10417515;28;20049;-59
2021/05/30 03:31:56;;;;;;;27.55;17.92;;;10.30;99.90;;;;;;10417024;28;20064;-61
2021/05/30 03:36:58;;;;;;;21.67;16.23;;;10.40;99.90;;;;;;10417898;28;20047;-60
2021/05/30 03:42:08;;;;;;;24.85;16.95;;;10.30;99.90;;;;;;10418045;28;20050;-60
2021/05/30 03:47:12;;;;;;;21.05;15.18;;;10.20;99.90;;;;;;10417740;28;20037;-60
2021/05/30 03:52:14;;;;;;;26.73;16.92;;;10.20;99.90;;;;;;10416141;28;20052;-59
2021/05/30 03:57:16;;;;;;;25.63;17.98;;;10.20;99.90;;;;;;10417547;28;20053;-60
2021/05/30 04:02:18;;;;;;;22.77;15.07;;;10.10;99.90;;;;;;10416948;28;20056;-60
2021/05/30 04:07:20;;;;;;;22.10;16.90;;;10.10;99.90;;;;;;10415538;28;20481;-59
2021/05/30 04:12:22;;;;;;;23.65;16.20;;;10.30;99.90;;;;;;10416676;28;20041;-60
2021/05/30 04:17:24;;;;;;;21.17;15.65;;;10.20;99.90;;;;;;10415812;28;20056;-59
2021/05/30 04:22:27;;;;;;;23.95;16.75;;;10.10;99.90;;;;;;10416344;28;20049;-59
2021/05/30 04:27:29;;;;;;;24.38;18.05;;;10.00;99.90;;;;;;10416024;28;20049;-60
2021/05/30 04:32:31;;;;;;;23.50;17.70;;;10.10;99.90;;;;;;10416353;28;20046;-60
2021/05/30 04:37:34;;;;;;;25.45;17.10;;;10.00;99.90;;;;;;10414970;28;20385;-60
2021/05/30 04:42:36;;;;;;;20.65;16.40;;;10.00;99.90;;;;;;10415713;28;20053;-60
2021/05/30 04:47:38;;;;;;;25.10;19.10;;;10.10;99.90;;;;;;10415819;28;20045;-59
2021/05/30 04:52:41;;;;;;;22.88;17.83;;;10.10;99.90;;;;;;10415746;28;20095;-60
2021/05/30 04:57:46;;;;;;;30.25;21.33;;;10.10;99.90;;;;;;10415205;28;20432;-61
2021/05/30 05:02:49;;;;;;;31.60;22.80;;;10.00;99.90;;;;;;10415486;28;20041;-60
2021/05/30 05:07:51;;;;;;;31.52;21.58;;;10.00;99.90;;;;;;10415183;28;20041;-59
2021/05/30 05:12:52;;;;;;;30.23;20.48;;;10.00;99.90;;;;;;10414963;28;20394;-60
2021/05/30 05:17:54;;;;;;;27.75;19.63;;;10.10;99.90;;;;;;10414931;28;20382;-60
2021/05/30 05:22:56;;;;;;;31.80;21.60;;;10.00;99.90;;;;;;10415105;28;20049;-61
2021/05/30 05:27:58;;;;;;;35.78;21.90;;;10.20;99.90;;;;;;10414632;28;20045;-60
2021/05/30 05:33:01;;;;;;;29.42;20.40;;;9.80;99.90;;;;;;10415231;28;20497;-61
2021/05/30 05:38:03;;;;;;;27.98;20.52;;;9.90;99.90;;;;;;10414672;28;20129;-59
2021/05/30 05:43:07;;;;;;;26.15;19.42;;;10.00;99.90;;;;;;10414905;28;20140;-60
2021/05/30 05:48:11;;;;;;;36.45;22.65;;;10.20;99.90;;;;;;10416511;28;20041;-59
2021/05/30 05:53:14;;;;;;;28.42;21.00;;;10.20;99.90;;;;;;10422086;28;20041;-60
2021/05/30 05:58:16;;;;;;;32.97;22.60;;;10.20;99.90;;;;;;10421636;28;20531;-60
2021/05/30 06:03:18;;;;;;;32.05;22.83;;;10.40;99.90;;;;;;10421530;28;20072;-60
2021/05/30 06:08:20;;;;;;;28.15;21.13;;;10.30;99.90;;;;;;10421985;28;20049;-60
2021/05/30 06:13:22;;;;;;;29.55;22.88;;;10.50;99.90;;;;;;10421585;28;20046;-60
2021/05/30 06:18:24;;;;;;;28.90;20.90;;;10.50;99.90;;;;;;10421152;28;20049;-56
2021/05/30 06:23:26;;;;;;;27.80;20.38;;;10.60;99.90;;;;;;10419921;28;20060;-57
2021/05/30 06:28:28;;;;;;;26.77;20.50;;;10.80;99.90;;;;;;10420640;28;20397;-56
2021/05/30 06:33:30;;;;;;;29.08;23.05;;;10.90;99.90;;;;;;10420798;28;20049;-57
2021/05/30 06:38:32;;;;;;;27.77;23.15;;;10.80;99.90;;;;;;10420331;28;20052;-56
2021/05/30 06:43:34;;;;;;;29.77;23.15;;;11.00;99.90;;;;;;10420603;28;20042;-56
2021/05/30 06:48:36;;;;;;;31.75;21.35;;;11.10;99.90;;;;;;10419846;28;20386;-54
2021/05/30 06:53:39;;;;;;;26.98;22.42;;;11.10;99.90;;;;;;10419574;28;20370;-55
2021/05/30 06:58:41;;;;;;;29.27;22.55;;;11.30;99.90;;;;;;10418849;28;20072;-56
2021/05/30 07:03:43;;;;;;;31.50;21.60;;;11.50;99.90;;;;;;10419046;28;20397;-56
2021/05/30 07:08:46;;;;;;;27.67;20.92;;;11.70;99.90;;;;;;10419009;28;20045;-57
2021/05/30 07:13:48;;;;;;;23.17;19.13;;;11.90;99.90;;;;;;10418751;28;20053;-56
2021/05/30 07:18:50;;;;;;;25.25;20.25;;;12.20;99.90;;;;;;10418986;28;20049;-55
2021/05/30 07:23:51;;;;;;;26.30;19.85;;;12.50;99.90;;;;;;10418637;28;20037;-57
2021/05/30 07:28:54;;;;;;;25.92;19.92;;;12.60;99.90;;;;;;10417521;28;20045;-56
2021/05/30 07:33:56;;;;;;;23.88;20.02;;;12.80;99.90;;;;;;10418081;28;20052;-57
2021/05/30 07:38:58;;;;;;;27.27;19.50;;;13.10;99.90;;;;;;10418095;28;20045;-57
2021/05/30 07:44:01;;;;;;;27.15;19.27;;;13.30;99.90;;;;;;10417567;28;20057;-58
2021/05/30 07:49:03;;;;;;;20.65;18.45;;;13.50;99.90;;;;;;10417725;28;20045;-56
2021/05/30 07:54:05;;;;;;;26.63;19.48;;;13.80;99.90;;;;;;10416806;28;20053;-56
2021/05/30 07:59:08;;;;;;;24.98;17.85;;;14.10;99.90;;;;;;10416583;28;20048;-56
2021/05/30 08:04:10;;;;;;;22.77;17.50;;;14.20;99.90;;;;;;10416410;28;20041;-56
2021/05/30 08:09:12;;;;;;;20.95;16.30;;;14.60;99.90;;;;;;10417193;28;20506;-56
2021/05/30 08:14:14;;;;;;;19.13;14.90;;;14.90;99.90;;;;;;10416172;28;20041;-57
2021/05/30 08:19:17;;;;;;;19.42;15.63;;;15.40;99.90;;;;;;10416582;28;20147;-55
2021/05/30 08:24:19;;;;;;;16.92;15.05;;;15.60;99.90;;;;;;10416124;28;20042;-57
2021/05/30 08:29:25;;;;;;;22.10;15.63;;;16.10;99.90;;;;;;10416582;28;20129;-54
2021/05/30 08:34:28;;;;;;;20.35;15.65;;;16.40;99.90;;;;;;10416113;28;20045;-56
2021/05/30 08:39:31;;;;;;;19.33;15.00;;;16.60;99.90;;;;;;10415843;28;20049;-57
2021/05/30 08:44:33;;;;;;;14.43;12.95;;;16.70;99.90;;;;;;10415649;28;20038;-57
2021/05/30 08:49:35;;;;;;;17.13;14.07;;;16.80;99.90;;;;;;10415679;28;20052;-57
2021/05/30 08:54:37;;;;;;;14.02;12.63;;;17.30;99.90;;;;;;10415347;28;20095;-58
2021/05/30 08:59:55;;;;;;;12.80;11.50;;;17.80;99.90;;;;;;10415635;28;20042;-59
2021/05/30 09:05:02;;;;;;;9.82;8.82;;;18.20;99.90;;;;;;10415656;28;20045;-58
2021/05/30 09:10:13;;;;;;;10.40;9.20;;;18.30;99.90;;;;;;10415355;28;20046;-57
2021/05/30 09:15:48;;;;;;;8.15;7.35;;;18.20;99.90;;;;;;10415389;28;20061;-58
2021/05/30 09:21:01;;;;;;;10.50;6.57;;;19.00;99.90;;;;;;10415154;28;20053;-57
2021/05/30 09:26:20;;;;;;;6.65;6.00;;;19.00;97.30;;;;;;10422246;28;20047;-58
2021/05/30 09:31:22;;;;;;;8.38;5.18;;;19.30;99.90;;;;;;10422874;28;20492;-57
2021/05/30 09:36:24;;;;;;;6.85;6.15;;;19.60;98.90;;;;;;10421468;28;20390;-57
2021/05/30 09:41:26;;;;;;;8.57;7.78;;;19.60;95.60;;;;;;10422501;28;20045;-57
2021/05/30 09:46:33;;;;;;;8.35;6.75;;;19.60;96.90;;;;;;10422441;28;20038;-56
2021/05/30 09:51:41;;;;;;;8.23;7.18;;;20.10;96.20;;;;;;10422234;28;20051;-57
2021/05/30 09:56:52;;;;;;;5.57;4.95;;;20.20;96.70;;;;;;10421561;28;20049;-58
2021/05/30 10:01:59;;;;;;;6.82;5.97;;;20.60;97.70;;;;;;10422235;28;20041;-57
2021/05/30 10:07:05;;;;;;;7.65;4.78;;;20.40;92.40;;;;;;10421464;28;20129;-59
2021/05/30 10:12:09;;;;;;;5.55;4.88;;;21.10;94.80;;;;;;10421820;28;20140;-58
2021/05/30 10:17:11;;;;;;;9.30;6.43;;;20.90;95.50;;;;;;10420033;28;20045;-57
2021/05/30 10:22:18;;;;;;;5.70;5.20;;;21.20;92.50;;;;;;10421049;28;20053;-57
2021/05/30 10:27:26;;;;;;;8.02;5.40;;;21.30;91.30;;;;;;10419711;28;20053;-59
2021/05/30 10:32:29;;;;;;;4.25;3.85;;;21.50;91.10;;;;;;10420624;28;20049;-58
2021/05/30 10:37:31;;;;;;;4.15;3.85;;;21.60;88.10;;;;;;10419006;28;20045;-58
2021/05/30 10:42:33;;;;;;;5.95;3.72;;;21.50;90.50;;;;;;10419031;28;20049;-58
2021/05/30 10:47:44;;;;;;;4.30;3.90;;;22.20;91.00;;;;;;10420084;28;20037;-58
2021/05/30 10:52:48;;;;;;;4.20;2.85;;;22.20;90.90;;;;;;10419819;28;20044;-58
2021/05/30 10:57:50;;;;;;;2.75;2.08;;;22.90;90.70;;;;;;10419965;28;20064;-59
2021/05/30 11:03:07;;;;;;;2.33;2.13;;;23.30;88.20;;;;;;10419254;28;20560;-58
2021/05/30 11:08:31;;;;;;;4.20;2.40;;;23.20;82.00;;;;;;10419112;28;20041;-58
2021/05/30 11:13:58;;;;;;;3.10;1.95;;;23.00;64.80;;;;;;10418810;28;20049;-59
2021/05/30 11:19:06;;;;;;;3.15;1.98;;;23.00;75.80;;;;;;10418791;28;20405;-58
2021/05/30 11:24:13;;;;;;;3.20;2.45;;;24.10;80.00;;;;;;10418081;28;20488;-59
2021/05/30 11:29:19;;;;;;;2.38;2.17;;;24.50;65.30;;;;;;10417894;28;20048;-58
2021/05/30 11:34:28;;;;;;;17.33;2.67;;;23.80;74.60;;;;;;10417458;28;20042;-59
2021/05/30 11:39:38;;;;;;;2.08;1.88;;;24.50;66.70;;;;;;10415872;28;20048;-59
2021/05/30 11:44:40;;;;;;;4.90;2.90;;;24.10;71.10;;;;;;10417616;28;20043;-58
2021/05/30 11:49:42;;;;;;;3.50;2.40;;;24.60;71.00;;;;;;10416924;28;20386;-59
2021/05/30 11:54:44;;;;;;;2.38;2.17;;;24.80;67.50;;;;;;10416444;28;20052;-58
2021/05/30 11:59:58;;;;;;;2.95;2.65;;;24.40;71.20;;;;;;10416225;28;20359;-59
2021/05/30 12:05:01;;;;;;;5.05;2.20;;;24.90;72.90;;;;;;10417015;28;20391;-59
2021/05/30 12:10:09;;;;;;;2.55;2.20;;;25.20;70.70;;;;;;10415458;28;20041;-59
2021/05/30 12:15:22;;;;;;;2.05;1.85;;;25.30;62.30;;;;;;10416887;28;20050;-57
2021/05/30 12:20:31;;;;;;;2.47;2.28;;;24.90;51.10;;;;;;10415928;28;20052;-57
2021/05/30 12:25:33;;;;;;;3.65;2.85;;;25.10;63.00;;;;;;10414532;28;20043;-57
2021/05/30 12:30:36;;;;;;;5.22;1.83;;;25.80;66.50;;;;;;10415738;28;20155;-57
2021/05/30 12:35:44;;;;;;;3.20;1.92;;;26.30;66.80;;;;;;10414960;28;20057;-57
2021/05/30 12:40:48;;;;;;;2.17;1.65;;;26.30;63.30;;;;;;10414870;28;20056;-57
2021/05/30 12:46:16;;;;;;;2.10;1.90;;;26.50;55.70;;;;;;10415424;28;20049;-58
2021/05/30 12:51:26;;;;;;;1.75;1.65;;;26.70;58.70;;;;;;10413862;28;20045;-57
2021/05/30 12:56:28;;;;;;;2.17;1.83;;;25.90;57.80;;;;;;10415081;28;20068;-57
2021/05/30 13:01:35;;;;;;;1.98;1.88;;;26.40;60.10;;;;;;10415056;28;20055;-57
2021/05/30 13:06:37;;;;;;;3.50;2.00;;;26.10;54.10;;;;;;10415212;28;20046;-57
2021/05/30 13:11:39;;;;;;;2.10;2.00;;;26.70;60.20;;;;;;10415185;28;20056;-58
2021/05/30 13:16:41;;;;;;;2.47;1.60;;;26.50;63.20;;;;;;10415070;28;20076;-57
2021/05/30 13:21:43;;;;;;;2.05;1.85;;;26.80;57.70;;;;;;10414904;28;20394;-57
2021/05/30 13:26:51;;;;;;;3.28;1.77;;;27.10;58.10;;;;;;10415018;28;20049;-57
2021/05/30 13:31:53;;;;;;;1.95;1.73;;;27.10;58.90;;;;;;10414875;28;20049;-58
2021/05/30 13:36:56;;;;;;;6.38;2.75;;;26.20;55.50;;;;;;10414762;28;20049;-57
2021/05/30 13:41:58;;;;;;;2.92;2.03;;;26.00;62.50;;;;;;10414444;28;20481;-58
2021/05/30 13:46:59;;;;;;;7.65;1.63;;;26.70;59.70;;;;;;10415201;28;20046;-58
2021/05/30 13:52:02;;;;;;;1.92;1.30;;;27.00;54.10;;;;;;10414348;28;20041;-57
2021/05/30 13:57:05;;;;;;;5.53;1.83;;;26.60;62.60;;;;;;10414439;28;20064;-58
2021/05/30 14:02:07;;;;;;;5.22;2.42;;;26.80;58.60;;;;;;10413953;28;20061;-58
2021/05/30 14:07:09;;;;;;;2.10;1.30;;;26.80;58.10;;;;;;10414434;28;20045;-58
2021/05/30 14:12:11;;;;;;;4.10;2.17;;;26.90;62.60;;;;;;10420381;28;20041;-58
2021/05/30 14:17:13;;;;;;;2.38;1.67;;;26.90;62.00;;;;;;10421874;28;20076;-58
2021/05/30 14:22:15;;;;;;;3.33;1.92;;;27.30;61.90;;;;;;10420996;28;20481;-58
2021/05/30 14:27:17;;;;;;;2.58;1.45;;;26.90;58.10;;;;;;10420488;28;20401;-57
2021/05/30 14:32:19;;;;;;;1.75;1.60;;;27.10;57.60;;;;;;10419335;28;20037;-57
2021/05/30 14:37:21;;;;;;;3.08;2.20;;;26.70;57.60;;;;;;10420818;28;20120;-58
2021/05/30 14:42:24;;;;;;;2.75;2.00;;;26.90;52.30;;;;;;10420298;28;20405;-58
2021/05/30 14:47:26;;;;;;;2.40;2.20;;;26.50;52.90;;;;;;10419841;28;20385;-58
2021/05/30 14:52:28;;;;;;;3.42;2.72;;;25.80;60.30;;;;;;10419840;28;20052;-58
2021/05/30 14:57:31;;;;;;;2.35;2.15;;;26.10;56.40;;;;;;10418744;28;20056;-60
2021/05/30 15:02:34;;;;;;;2.17;2.00;;;26.30;58.30;;;;;;10419434;28;20429;-57
2021/05/30 15:07:36;;;;;;;2.38;1.75;;;26.60;60.90;;;;;;10419132;28;20478;-57
2021/05/30 15:12:38;;;;;;;2.22;2.08;;;26.40;59.80;;;;;;10419220;28;20049;-57
2021/05/30 15:17:40;;;;;;;5.15;2.03;;;26.10;53.80;;;;;;10419026;28;20045;-57
2021/05/30 15:22:42;;;;;;;3.08;1.92;;;26.00;59.70;;;;;;10416899;28;20084;-57
2021/05/30 15:27:45;;;;;;;3.05;2.72;;;26.00;64.80;;;;;;10418559;28;20046;-59
2021/05/30 15:32:47;;;;;;;2.50;2.13;;;25.70;58.10;;;;;;10418534;28;20046;-57
2021/05/30 15:37:49;;;;;;;1.77;1.52;;;25.90;58.30;;;;;;10418042;28;20045;-57
2021/05/30 15:42:51;;;;;;;3.03;2.30;;;25.60;59.90;;;;;;10418183;28;20052;-58
2021/05/30 15:47:53;;;;;;;6.05;2.20;;;25.70;60.90;;;;;;10416690;28;20041;-57
2021/05/30 15:52:55;;;;;;;2.75;1.73;;;25.40;61.50;;;;;;10417412;28;20367;-58
2021/05/30 15:57:57;;;;;;;2.05;1.80;;;25.30;61.40;;;;;;10417200;28;20057;-58
2021/05/30 16:02:59;;;;;;;2.78;2.20;;;25.50;65.40;;;;;;10417319;28;20057;-58
2021/05/30 16:08:01;;;;;;;3.83;1.90;;;25.20;62.80;;;;;;10416950;28;20049;-58
2021/05/30 16:13:03;;;;;;;2.20;1.90;;;25.60;62.60;;;;;;10417020;28;20080;-58
2021/05/30 16:18:06;;;;;;;2.35;1.90;;;25.20;59.30;;;;;;10416756;28;20042;-58
2021/05/30 16:23:08;;;;;;;4.47;3.05;;;25.10;61.10;;;;;;10416256;28;20474;-58
2021/05/30 16:28:10;;;;;;;2.05;1.77;;;24.70;55.80;;;;;;10416346;28;20381;-58
2021/05/30 16:33:13;;;;;;;3.35;2.80;;;24.70;59.50;;;;;;10416082;28;20042;-58
2021/05/30 16:38:15;;;;;;;5.88;4.88;;;24.60;58.90;;;;;;10416228;28;20042;-58
2021/05/30 16:43:17;;;;;;;7.45;5.60;;;24.70;65.00;;;;;;10415702;28;20080;-58
2021/05/30 16:48:22;;;;;;;8.25;5.50;;;24.60;61.60;;;;;;10415829;28;20045;-58
2021/05/30 16:53:25;;;;;;;5.40;3.42;;;24.40;60.30;;;;;;10415525;28;20398;-58
2021/05/30 16:58:28;;;;;;;5.18;3.45;;;24.30;58.20;;;;;;10415958;28;20152;-58
2021/05/30 17:03:30;;;;;;;4.90;3.50;;;24.40;62.70;;;;;;10415444;28;20136;-57
2021/05/30 17:08:32;;;;;;;4.00;1.85;;;24.40;64.20;;;;;;10415423;28;20496;-57
2021/05/30 17:13:35;;;;;;;4.00;2.10;;;24.20;60.00;;;;;;10415088;28;20049;-58
2021/05/30 17:18:39;;;;;;;2.13;1.92;;;24.20;63.30;;;;;;10415200;28;20053;-57
2021/05/30 17:23:41;;;;;;;2.35;2.15;;;24.00;60.10;;;;;;10415250;28;20049;-57
2021/05/30 17:28:43;;;;;;;3.38;1.77;;;23.80;62.00;;;;;;10413839;28;20046;-58
2021/05/30 17:33:47;;;;;;;3.80;2.30;;;23.80;64.30;;;;;;10413444;28;20501;-58
2021/05/30 17:38:50;;;;;;;2.65;2.00;;;23.50;62.30;;;;;;10414799;28;20048;-59
2021/05/30 17:43:52;;;;;;;5.45;2.40;;;23.30;63.30;;;;;;10416257;28;20056;-59
2021/05/30 17:48:54;;;;;;;3.42;1.83;;;23.20;60.20;;;;;;10422590;28;20044;-59
2021/05/30 17:53:56;;;;;;;3.00;2.10;;;23.20;64.10;;;;;;10422185;28;20400;-59
2021/05/30 17:58:59;;;;;;;5.38;2.00;;;23.00;63.80;;;;;;10422338;28;20053;-58
2021/05/30 18:04:01;;;;;;;2.85;1.95;;;23.10;67.00;;;;;;10421880;28;20053;-58
2021/05/30 18:09:06;;;;;;;2.85;2.17;;;22.80;65.20;;;;;;10420472;28;20038;-59
2021/05/30 18:14:09;;;;;;;3.63;2.40;;;22.70;63.60;;;;;;10421222;28;20068;-58
2021/05/30 18:19:11;;;;;;;2.95;2.47;;;22.60;66.70;;;;;;10421767;28;20052;-58
2021/05/30 18:24:13;;;;;;;3.65;2.75;;;22.30;66.70;;;;;;10421263;28;20057;-59
2021/05/30 18:29:16;;;;;;;3.20;2.30;;;22.50;67.50;;;;;;10419713;28;20041;-58
2021/05/30 18:34:17;;;;;;;4.85;2.20;;;22.50;68.50;;;;;;10420319;28;20486;-58
2021/05/30 18:39:19;;;;;;;4.13;2.20;;;22.30;69.50;;;;;;10420573;28;20045;-59
2021/05/30 18:44:21;;;;;;;4.43;2.40;;;22.10;70.40;;;;;;10420714;28;20045;-58
2021/05/30 18:49:23;;;;;;;2.72;2.38;;;22.10;72.00;;;;;;10418889;28;20038;-58
2021/05/30 18:54:25;;;;;;;2.85;2.53;;;22.00;71.50;;;;;;10419055;28;20516;-62
2021/05/30 18:59:27;;;;;;;4.47;2.47;;;21.80;73.40;;;;;;10419012;28;20554;-61
2021/05/30 19:04:29;;;;;;;5.63;2.97;;;21.80;73.80;;;;;;10419324;28;20135;-61
2021/05/30 19:09:32;;;;;;;3.03;2.55;;;21.60;74.80;;;;;;10419614;28;20465;-62
2021/05/30 19:14:34;;;;;;;4.20;2.55;;;21.50;75.60;;;;;;10419314;28;20046;-61
2021/05/30 19:19:36;;;;;;;6.55;3.42;;;21.50;76.10;;;;;;10418519;28;20041;-61
2021/05/30 19:24:39;;;;;;;3.58;2.88;;;21.20;78.80;;;;;;10418852;28;20053;-61
2021/05/30 19:29:41;;;;;;;6.30;3.33;;;20.90;79.90;;;;;;10417536;28;20037;-61
2021/05/30 19:34:43;;;;;;;5.07;3.30;;;20.80;81.40;;;;;;10417254;28;20401;-61
2021/05/30 19:39:46;;;;;;;4.32;3.15;;;20.60;82.70;;;;;;10418601;28;20076;-62
2021/05/30 19:44:48;;;;;;;4.72;3.13;;;20.40;83.60;;;;;;10418322;28;20049;-62
2021/05/30 19:49:55;;;;;;;4.05;3.47;;;20.20;85.50;;;;;;10417943;28;20065;-61
2021/05/30 19:54:57;;;;;;;4.05;2.95;;;20.00;87.20;;;;;;10417409;28;20041;-61
2021/05/30 19:59:58;;;;;;;3.63;3.08;;;19.80;88.40;;;;;;10417771;28;20421;-61
2021/05/30 20:05:01;;;;;;;6.25;3.08;;;19.60;88.90;;;;;;10416998;28;20385;-60
2021/05/30 20:10:14;;;;;;;3.55;3.25;;;19.40;90.00;;;;;;10416814;28;20041;-60
2021/05/30 20:15:17;;;;;;;6.22;4.05;;;19.30;89.90;;;;;;10416620;28;20398;-61
2021/05/30 20:20:19;;;;;;;7.32;4.85;;;19.10;91.30;;;;;;10417273;28;20042;-61
2021/05/30 20:25:29;;;;;;;5.50;3.88;;;18.90;91.50;;;;;;10416314;28;20073;-61
2021/05/30 20:30:31;;;;;;;6.65;3.38;;;18.90;91.50;;;;;;10416082;28;20041;-61
2021/05/30 20:35:34;;;;;;;3.58;3.20;;;18.70;91.70;;;;;;10415778;28;20477;-61
2021/05/30 20:40:37;;;;;;;6.47;3.67;;;18.50;92.10;;;;;;10415903;28;20045;-61
2021/05/30 20:45:39;;;;;;;5.43;4.65;;;18.40;92.60;;;;;;10415918;28;20044;-60
2021/05/30 20:50:41;;;;;;;10.18;3.75;;;18.20;92.90;;;;;;10415751;28;20124;-61
2021/05/30 20:55:43;;;;;;;5.28;3.70;;;18.20;92.80;;;;;;10415407;28;20049;-61
2021/05/30 21:00:45;;;;;;;4.57;4.13;;;18.10;92.50;;;;;;10415678;28;20052;-60
2021/05/30 21:05:47;;;;;;;5.38;3.40;;;18.00;92.50;;;;;;10415559;28;20042;-61
2021/05/30 21:10:49;;;;;;;4.97;3.72;;;17.90;93.00;;;;;;10415703;28;20045;-61
2021/05/30 21:15:51;;;;;;;6.50;4.20;;;17.80;93.00;;;;;;10415469;28;20052;-60
2021/05/30 21:20:58;;;;;;;5.63;4.13;;;17.70;93.60;;;;;;10420944;28;20045;-61
2021/05/30 21:26:00;;;;;;;6.28;4.07;;;17.50;93.70;;;;;;10423120;28;20355;-60
2021/05/30 21:31:02;;;;;;;7.47;4.65;;;17.30;94.10;;;;;;10423711;28;20060;-60
2021/05/30 21:36:05;;;;;;;9.77;4.68;;;17.30;94.40;;;;;;10422837;28;20370;-61
2021/05/30 21:41:07;;;;;;;5.32;4.22;;;17.10;95.00;;;;;;10423651;28;20052;-60
2021/05/30 21:46:09;;;;;;;4.53;4.07;;;17.00;95.70;;;;;;10422587;28;20044;-60
2021/05/30 21:51:11;;;;;;;5.38;3.70;;;17.00;95.20;;;;;;10422420;28;20370;-60
2021/05/30 21:56:13;;;;;;;5.72;3.78;;;16.90;95.90;;;;;;10421992;28;20053;-60
2021/05/30 22:01:19;;;;;;;7.88;4.80;;;16.70;96.40;;;;;;10422057;28;20508;-61
2021/05/30 22:06:21;;;;;;;5.78;4.43;;;16.60;96.60;;;;;;10421947;28;20045;-61
2021/05/30 22:11:23;;;;;;;12.10;6.22;;;16.50;96.90;;;;;;10422285;28;20052;-61
2021/05/30 22:16:25;;;;;;;7.90;5.82;;;16.50;97.10;;;;;;10420931;28;20049;-62
2021/05/30 22:21:31;;;;;;;8.73;6.72;;;16.30;97.30;;;;;;10421557;28;20053;-62
2021/05/30 22:26:33;;;;;;;8.25;6.50;;;16.20;97.90;;;;;;10419919;28;20077;-61
2021/05/30 22:31:35;;;;;;;12.55;5.82;;;16.20;98.20;;;;;;10421678;28;20045;-62
2021/05/30 22:36:39;;;;;;;10.52;5.82;;;16.10;98.30;;;;;;10420701;28;20052;-61
2021/05/30 22:41:42;;;;;;;10.05;6.30;;;16.00;99.80;;;;;;10421184;28;20049;-61
2021/05/30 22:46:44;;;;;;;9.23;7.10;;;15.80;99.50;;;;;;10420548;28;20478;-62
2021/05/30 22:51:47;;;;;;;11.77;7.32;;;15.80;99.90;;;;;;10420105;28;20041;-61
2021/05/30 22:56:49;;;;;;;9.98;7.43;;;15.80;99.60;;;;;;10419819;28;20054;-61
2021/05/30 23:01:50;;;;;;;11.52;8.30;;;15.70;99.50;;;;;;10419761;28;20054;-61
2021/05/30 23:06:52;;;;;;;12.73;8.00;;;15.70;99.10;;;;;;10419572;28;20466;-61
2021/05/30 23:11:54;;;;;;;11.07;7.78;;;15.70;99.90;;;;;;10419164;28;20383;-61
2021/05/30 23:16:56;;;;;;;12.27;8.45;;;15.50;99.90;;;;;;10418940;28;20391;-61
2021/05/30 23:21:58;;;;;;;10.60;7.88;;;15.50;99.90;;;;;;10419397;28;20088;-61
2021/05/30 23:27:00;;;;;;;11.35;8.18;;;15.30;99.90;;;;;;10418570;28;20049;-61
2021/05/30 23:32:03;;;;;;;12.70;8.05;;;15.30;99.90;;;;;;10417745;28;20038;-61
2021/05/30 23:37:05;;;;;;;11.68;7.55;;;15.10;99.90;;;;;;10418064;28;20052;-61
2021/05/30 23:42:07;;;;;;;11.82;8.25;;;15.10;99.90;;;;;;10417358;28;20501;-61
2021/05/30 23:47:08;;;;;;;10.38;7.78;;;15.00;99.90;;;;;;10417736;28;20042;-61
2021/05/30 23:52:11;;;;;;;16.17;9.15;;;14.90;99.90;;;;;;10417673;28;20363;-61
2021/05/30 23:57:13;;;;;;;15.32;9.07;;;14.90;99.90;;;;;;10417700;28;20053;-60
